createdAt,value
2018-09-26T00:02:31.637Z,1.6
2018-09-26T00:05:31.858Z,1.5
2018-09-26T00:08:31.878Z,1.8
2018-09-26T00:11:31.583Z,1.6
2018-09-26T00:14:31.746Z,1.6
2018-09-26T00:17:31.611Z,1.5
2018-09-26T00:20:31.672Z,1.6
2018-09-26T00:23:31.882Z,1.6
2018-09-26T00:26:31.616Z,1.6
2018-09-26T00:29:31.955Z,1.5
2018-09-26T00:32:31.622Z,1.6
2018-09-26T00:35:31.819Z,1.5
2018-09-26T00:38:31.754Z,1.5
2018-09-26T00:41:31.425Z,1.5
2018-09-26T00:44:31.790Z,1.5
2018-09-26T00:47:31.814Z,1.4
2018-09-26T00:50:31.816Z,1.5
2018-09-26T00:53:31.492Z,1.5
2018-09-26T00:56:31.581Z,1.6
2018-09-26T00:59:31.447Z,1.5
2018-09-26T01:02:31.533Z,1.4
2018-09-26T01:05:31.513Z,1.4
2018-09-26T01:08:31.768Z,1.4
2018-09-26T01:11:32.005Z,1.4
2018-09-26T01:14:31.632Z,1.3
2018-09-26T01:17:31.864Z,1.4
2018-09-26T01:20:31.678Z,1.4
2018-09-26T01:23:31.918Z,1.5
2018-09-26T01:26:31.543Z,1.5
2018-09-26T01:29:31.945Z,1.5
2018-09-26T01:32:31.472Z,1.5
2018-09-26T01:35:31.611Z,1.4
2018-09-26T01:38:31.622Z,1.5
2018-09-26T01:41:33.390Z,1.5
2018-09-26T01:44:32.082Z,1.7
2018-09-26T01:47:31.494Z,1.5
2018-09-26T01:50:31.867Z,1.6
2018-09-26T01:53:31.739Z,1.7
2018-09-26T01:56:31.948Z,1.6
2018-09-26T01:59:31.483Z,1.5
2018-09-26T02:02:31.665Z,1.8
2018-09-26T02:05:31.538Z,1.6
2018-09-26T02:08:31.695Z,1.4
2018-09-26T02:11:31.480Z,1.7
2018-09-26T02:14:31.409Z,1.6
2018-09-26T02:17:31.784Z,1.5
2018-09-26T02:20:31.778Z,1.4
2018-09-26T02:23:32.114Z,1.4
2018-09-26T02:26:31.670Z,1.3
2018-09-26T02:29:31.639Z,1.4
2018-09-26T02:32:31.499Z,1.5
2018-09-26T02:35:31.525Z,1.5
2018-09-26T02:38:31.523Z,1.6
2018-09-26T02:41:31.974Z,1.4
2018-09-26T02:44:31.487Z,1.4
2018-09-26T02:47:31.527Z,1.4
2018-09-26T02:50:31.594Z,1.4
2018-09-26T02:53:31.614Z,1.4
2018-09-26T02:56:31.627Z,1.5
2018-09-26T02:59:31.510Z,1.5
2018-09-26T03:02:31.357Z,1.4
2018-09-26T03:05:31.639Z,1.4
2018-09-26T03:08:31.979Z,1.5
2018-09-26T03:11:31.831Z,1.8
2018-09-26T03:14:31.544Z,1.6
2018-09-26T03:17:32.930Z,1.7
2018-09-26T03:20:31.454Z,1.6
2018-09-26T03:23:31.545Z,1.4
2018-09-26T03:26:31.548Z,1.5
2018-09-26T03:29:31.493Z,1.4
2018-09-26T03:32:31.490Z,1.3
2018-09-26T03:35:31.557Z,1.3
2018-09-26T03:38:31.588Z,1.3
2018-09-26T03:41:31.472Z,1.5
2018-09-26T03:44:31.987Z,1.4
2018-09-26T03:47:31.983Z,1.7
2018-09-26T03:50:31.648Z,1.5
2018-09-26T03:53:31.500Z,1.4
2018-09-26T03:56:31.439Z,1.4
2018-09-26T03:59:31.949Z,1.3
2018-09-26T04:02:31.604Z,1.4
2018-09-26T04:05:31.514Z,1.4
2018-09-26T04:08:31.460Z,1.4
2018-09-26T04:11:31.732Z,1.3
2018-09-26T04:14:31.553Z,1.4
2018-09-26T04:17:31.621Z,1.4
2018-09-26T04:20:33.352Z,1.5
2018-09-26T04:23:31.604Z,1.4
2018-09-26T04:26:34.453Z,1.4
2018-09-26T04:29:31.981Z,1.3
2018-09-26T04:32:32.766Z,1.5
2018-09-26T04:35:31.649Z,1.5
2018-09-26T04:38:33.163Z,1.4
2018-09-26T04:41:31.906Z,1.3
2018-09-26T04:44:31.521Z,1.5
2018-09-26T04:47:31.448Z,1.4
2018-09-26T04:50:31.378Z,1.6
2018-09-26T04:53:31.384Z,1.6
2018-09-26T04:56:31.531Z,1.5
2018-09-26T04:59:31.390Z,1.4
2018-09-26T05:02:31.504Z,1.4
2018-09-26T05:05:31.697Z,1.4
2018-09-26T05:08:31.396Z,1.5
2018-09-26T05:11:31.644Z,1.5
2018-09-26T05:14:31.896Z,1.4
2018-09-26T05:17:31.961Z,1.4
2018-09-26T05:20:31.529Z,1.3
2018-09-26T05:23:31.451Z,1.3
2018-09-26T05:26:31.615Z,1.4
2018-09-26T05:29:31.436Z,1.4
2018-09-26T05:32:31.957Z,1.4
2018-09-26T05:35:31.778Z,1.4
2018-09-26T05:38:31.687Z,1.4
2018-09-26T05:41:32.194Z,1.4
2018-09-26T05:44:31.730Z,1.3
2018-09-26T05:47:31.993Z,1.3
2018-09-26T05:50:31.624Z,1.5
2018-09-26T05:53:33.174Z,1.5
2018-09-26T05:56:31.741Z,1.4
2018-09-26T05:59:32.176Z,1.5
2018-09-26T06:02:31.383Z,1.4
2018-09-26T06:05:33.337Z,1.4
2018-09-26T06:08:31.431Z,1.3
2018-09-26T06:11:31.584Z,1.3
2018-09-26T06:14:31.330Z,1.3
2018-09-26T06:17:31.402Z,1.9
2018-09-26T06:20:31.425Z,1.6
2018-09-26T06:23:31.295Z,1.4
2018-09-26T06:26:31.688Z,1.4
2018-09-26T06:29:31.631Z,1.4
2018-09-26T06:32:31.878Z,1.4
2018-09-26T06:35:31.512Z,1.3
2018-09-26T06:38:31.574Z,1.4
2018-09-26T06:41:31.346Z,1.4
2018-09-26T06:44:32.348Z,1.5
2018-09-26T06:47:32.782Z,1.3
2018-09-26T06:50:31.493Z,1.4
2018-09-26T06:53:31.542Z,1.4
2018-09-26T06:56:31.424Z,1.4
2018-09-26T06:59:31.309Z,1.6
2018-09-26T07:02:31.431Z,1.5
2018-09-26T07:05:31.836Z,1.4
2018-09-26T07:08:31.776Z,1.5
2018-09-26T07:11:31.633Z,1.4
2018-09-26T07:14:31.408Z,1.4
2018-09-26T07:17:31.624Z,1.4
2018-09-26T07:20:31.380Z,1.8
2018-09-26T07:23:31.540Z,1.6
2018-09-26T07:26:31.410Z,1.4
2018-09-26T07:29:31.529Z,1.6
2018-09-26T07:32:31.660Z,1.7
2018-09-26T07:35:31.440Z,1.8
2018-09-26T07:38:33.232Z,2.5
2018-09-26T07:41:31.500Z,2.4
2018-09-26T07:44:31.428Z,2.1
2018-09-26T07:47:31.322Z,2.2
2018-09-26T07:50:31.399Z,2.5
2018-09-26T07:53:31.531Z,2.3
2018-09-26T07:56:31.667Z,1.9
2018-09-26T07:59:31.694Z,2.1
2018-09-26T08:02:31.596Z,2.4
2018-09-26T08:05:31.683Z,3.5
2018-09-26T08:08:31.468Z,3.4
2018-09-26T08:11:32.140Z,5
2018-09-26T08:14:31.378Z,4.9
2018-09-26T08:17:31.748Z,6.5
2018-09-26T08:20:31.607Z,5.5
2018-09-26T08:23:31.570Z,4.5
2018-09-26T08:26:31.524Z,5.5
2018-09-26T08:29:31.532Z,7.3
2018-09-26T08:32:31.425Z,6.3
2018-09-26T08:35:31.544Z,9.2
2018-09-26T08:38:31.688Z,9.1
2018-09-26T08:41:31.642Z,8.2
2018-09-26T08:44:32.385Z,8.1
2018-09-26T08:47:31.322Z,9.1
2018-09-26T08:50:31.518Z,7.1
2018-09-26T08:53:31.498Z,11.1
2018-09-26T08:56:31.395Z,9.1
2018-09-26T08:59:32.078Z,8.6
2018-09-26T09:02:31.445Z,10.4
2018-09-26T09:05:31.262Z,8.2
2018-09-26T09:12:00.407Z,7.8
2018-09-26T09:15:00.450Z,6.9
2018-09-26T09:18:00.281Z,7.4
2018-09-26T09:21:00.625Z,6.5
2018-09-26T09:24:00.238Z,6.1
2018-09-26T09:27:01.883Z,6.6
2018-09-26T09:30:01.240Z,5.8
2018-09-26T09:33:00.646Z,5.1
2018-09-26T09:36:00.447Z,4.8
2018-09-26T09:39:00.553Z,5.4
2018-09-26T09:42:00.538Z,4.9
2018-09-26T09:45:00.417Z,4.2
2018-09-26T09:48:00.420Z,4.3
2018-09-26T09:51:00.874Z,3.9
2018-09-26T09:54:00.218Z,4.5
2018-09-26T10:01:12.759Z,6.1
2018-09-26T10:04:12.824Z,4.7
2018-09-26T10:10:19.374Z,4.1
2018-09-26T10:13:20.014Z,3.6
2018-09-26T10:16:19.474Z,4.1
2018-09-26T10:19:19.382Z,4.5
2018-09-26T10:22:19.806Z,4.5
2018-09-26T10:25:19.889Z,4
2018-09-26T10:28:19.755Z,4
2018-09-26T10:31:19.328Z,4.6
2018-09-26T10:34:19.411Z,5.4
2018-09-26T10:37:19.972Z,5.6
2018-09-26T10:40:19.312Z,5.2
2018-09-26T10:43:19.897Z,4.3
2018-09-26T10:46:19.539Z,4.5
2018-09-26T10:49:19.373Z,4.5
2018-09-26T10:52:19.317Z,6.4
2018-09-26T10:55:19.825Z,4.7
2018-09-26T10:58:19.508Z,4.9
2018-09-26T11:01:19.599Z,5.9
2018-09-26T11:04:20.602Z,4.5
2018-09-26T11:07:19.502Z,4.2
2018-09-26T11:10:20.693Z,4.5
2018-09-26T11:13:19.316Z,5
2018-09-26T11:16:20.429Z,4.6
2018-09-26T11:19:19.407Z,4.5
2018-09-26T11:22:21.292Z,4.6
2018-09-26T11:25:19.519Z,5.2
2018-09-26T11:28:21.119Z,4.7
2018-09-26T11:31:19.534Z,4.6
2018-09-26T11:34:20.674Z,4.3
2018-09-26T11:37:19.283Z,4.1
2018-09-26T11:40:20.659Z,5.1
2018-09-26T11:43:19.344Z,4.5
2018-09-26T11:46:20.922Z,4.3
2018-09-26T11:49:19.423Z,3.9
2018-09-26T11:52:21.087Z,3.2
2018-09-26T11:55:19.565Z,3.6
2018-09-26T11:58:20.460Z,3.8
2018-09-26T12:01:19.410Z,3.9
2018-09-26T12:04:20.743Z,3.2
2018-09-26T12:07:20.316Z,2.9
2018-09-26T12:10:21.036Z,2.8
2018-09-26T12:13:19.506Z,4.5
2018-09-26T12:16:20.811Z,5.1
2018-09-26T12:19:20.817Z,5.9
2018-09-26T12:22:21.747Z,6
2018-09-26T12:25:20.568Z,7.4
2018-09-26T12:28:20.737Z,6.6
2018-09-26T12:31:19.553Z,6.1
2018-09-26T12:34:20.456Z,5.8
2018-09-26T12:37:19.340Z,6.1
2018-09-26T12:40:21.009Z,5.9
2018-09-26T12:43:19.286Z,5.4
2018-09-26T12:46:20.953Z,5
2018-09-26T12:49:19.427Z,6.1
2018-09-26T12:52:20.682Z,7.5
2018-09-26T12:55:19.260Z,8.7
2018-09-26T12:58:21.118Z,8.4
2018-09-26T13:01:19.204Z,6.3
2018-09-26T13:04:20.627Z,5.2
2018-09-26T13:07:19.260Z,5.2
2018-09-26T13:10:21.026Z,4.9
2018-09-26T13:13:19.379Z,4.6
2018-09-26T13:16:20.922Z,4.8
2018-09-26T13:19:19.519Z,4.7
2018-09-26T13:22:21.168Z,5.2
2018-09-26T13:25:20.506Z,4.3
2018-09-26T13:28:21.227Z,5.1
2018-09-26T13:31:19.365Z,5.1
2018-09-26T13:34:20.812Z,4.2
2018-09-26T13:37:19.511Z,3.8
2018-09-26T13:40:20.481Z,4.2
2018-09-26T13:43:19.403Z,3.8
2018-09-26T13:46:22.299Z,3.6
2018-09-26T13:49:19.331Z,4.5
2018-09-26T13:52:21.047Z,4.9
2018-09-26T13:55:19.504Z,3.9
2018-09-26T13:58:21.295Z,3
2018-09-26T14:01:20.056Z,3.8
2018-09-26T14:04:20.548Z,3.5
2018-09-26T14:07:19.352Z,3.5
2018-09-26T14:10:19.418Z,3.8
2018-09-26T14:13:19.347Z,2.9
2018-09-26T14:16:19.240Z,3.8
2018-09-26T14:19:19.533Z,4.3
2018-09-26T14:22:20.716Z,3.9
2018-09-26T14:25:19.698Z,3.2
2018-09-26T14:28:20.731Z,4.1
2018-09-26T14:31:19.393Z,3.2
2018-09-26T14:34:19.432Z,3.1
2018-09-26T14:37:19.307Z,3.4
2018-09-26T14:40:19.455Z,3.6
2018-09-26T14:43:19.408Z,3.2
2018-09-26T14:46:19.491Z,3.2
2018-09-26T14:49:21.011Z,3.4
2018-09-26T14:52:19.580Z,3.1
2018-09-26T14:55:20.403Z,2.8
2018-09-26T14:58:20.219Z,2.9
2018-09-26T15:01:19.461Z,2.9
2018-09-26T15:04:22.017Z,4.2
2018-09-26T15:07:19.400Z,3.6
2018-09-26T15:10:21.080Z,2.8
2018-09-26T15:13:19.255Z,2.3
2018-09-26T15:16:20.448Z,2.3
2018-09-26T15:19:19.348Z,2.5
2018-09-26T15:22:20.832Z,3.1
2018-09-26T15:25:19.104Z,3.6
2018-09-26T15:28:20.241Z,3.4
2018-09-26T15:31:19.350Z,3.3
2018-09-26T15:34:20.821Z,21.2
2018-09-26T15:37:19.242Z,18.9
2018-09-26T15:40:20.922Z,16.3
2018-09-26T15:43:19.460Z,15.1
2018-09-26T15:46:20.657Z,12.8
2018-09-26T15:49:19.350Z,10.6
2018-09-26T15:52:20.750Z,11.5
2018-09-26T15:55:20.239Z,7.5
2018-09-26T15:58:21.407Z,5.6
2018-09-26T16:01:19.319Z,5.1
2018-09-26T16:04:21.129Z,5.7
2018-09-26T16:07:19.542Z,4.8
2018-09-26T16:10:21.073Z,5
2018-09-26T16:13:19.538Z,4
2018-09-26T16:16:21.090Z,3.9
2018-09-26T16:19:20.831Z,3.6
2018-09-26T16:22:20.581Z,3.8
2018-09-26T16:25:20.662Z,3.9
2018-09-26T16:28:20.594Z,5.6
2018-09-26T16:31:19.412Z,4.7
2018-09-26T16:34:20.859Z,4.4
2018-09-26T16:37:19.315Z,3.6
2018-09-26T16:40:20.762Z,3.4
2018-09-26T16:43:19.380Z,3.4
2018-09-26T16:46:21.123Z,4
2018-09-26T16:49:19.271Z,3.7
2018-09-26T16:52:20.918Z,3.3
2018-09-26T16:55:19.416Z,3.2
2018-09-26T16:58:21.029Z,2.8
2018-09-26T17:01:19.361Z,2.8
2018-09-26T17:04:20.751Z,3.3
2018-09-26T17:07:19.474Z,3
2018-09-26T17:10:20.464Z,2.9
2018-09-26T17:13:19.745Z,2.7
2018-09-26T17:16:20.649Z,3.1
2018-09-26T17:19:20.424Z,3.5
2018-09-26T17:22:20.985Z,3
2018-09-26T17:25:19.512Z,2.5
2018-09-26T17:28:21.099Z,2.4
2018-09-26T17:31:20.052Z,2.1
2018-09-26T17:34:20.764Z,2.6
2018-09-26T17:37:19.265Z,2.3
2018-09-26T17:40:20.599Z,2.3
2018-09-26T17:43:21.073Z,2.5
2018-09-26T17:46:21.112Z,2.3
2018-09-26T17:49:20.366Z,2.4
2018-09-26T17:52:20.615Z,2.2
2018-09-26T17:55:19.565Z,1.9
2018-09-26T17:58:20.753Z,2.1
2018-09-26T18:01:20.023Z,2.4
2018-09-26T18:04:20.984Z,2.9
2018-09-26T18:07:19.390Z,3.1
2018-09-26T18:10:19.215Z,3.9
2018-09-26T18:13:20.624Z,4.7
2018-09-26T18:16:19.295Z,5.9
2018-09-26T18:19:19.281Z,6
2018-09-26T18:22:19.011Z,7.7
2018-09-26T18:25:19.537Z,6.5
2018-09-26T18:28:19.209Z,9.6
2018-09-26T18:31:19.541Z,8.4
2018-09-26T18:34:19.305Z,8.9
2018-09-26T18:37:19.304Z,8.8
2018-09-26T18:40:19.395Z,7.9
2018-09-26T18:43:19.274Z,7.9
2018-09-26T18:46:19.430Z,6.9
2018-09-26T18:49:19.249Z,6.8
2018-09-26T18:52:19.375Z,5.5
2018-09-26T18:55:19.217Z,4.9
2018-09-26T18:58:19.293Z,4.6
2018-09-26T19:01:19.118Z,4.6
2018-09-26T19:04:19.326Z,6.1
2018-09-26T19:07:19.665Z,5.4
2018-09-26T19:10:19.816Z,5
2018-09-26T19:13:19.712Z,4.8
2018-09-26T19:16:19.211Z,4.7
2018-09-26T19:19:19.297Z,4.6
2018-09-26T19:22:19.060Z,5
2018-09-26T19:25:19.024Z,7
2018-09-26T19:28:19.083Z,6.2
2018-09-26T19:31:19.493Z,5.2
2018-09-26T19:34:19.784Z,5.4
2018-09-26T19:37:19.589Z,4.7
2018-09-26T19:40:19.236Z,4
2018-09-26T19:43:19.354Z,4.3
2018-09-26T19:46:19.388Z,3.5
2018-09-26T19:49:19.280Z,3.8
2018-09-26T19:52:20.001Z,4.1
2018-09-26T19:55:19.077Z,3.9
2018-09-26T19:58:20.349Z,3.8
2018-09-26T20:01:19.158Z,3.7
2018-09-26T20:04:19.273Z,4.9
2018-09-26T20:07:19.134Z,4.4
2018-09-26T20:10:21.334Z,3.9
2018-09-26T20:13:19.105Z,3.9
2018-09-26T20:16:19.491Z,3.6
2018-09-26T20:19:19.366Z,3.9
2018-09-26T20:22:19.114Z,3.4
2018-09-26T20:25:19.283Z,3.4
2018-09-26T20:28:19.204Z,3.6
2018-09-26T20:31:19.295Z,3.5
2018-09-26T20:34:19.386Z,3.2
2018-09-26T20:37:19.169Z,4.1
2018-09-26T20:40:19.403Z,4.2
2018-09-26T20:43:19.356Z,3.5
2018-09-26T20:46:19.231Z,3.9
2018-09-26T20:49:19.212Z,3.9
2018-09-26T20:52:19.419Z,3.9
2018-09-26T20:55:19.254Z,3.3
2018-09-26T20:58:20.614Z,3.2
2018-09-26T21:01:19.307Z,3.4
2018-09-26T21:04:19.257Z,2.9
2018-09-26T21:07:19.299Z,2.9
2018-09-26T21:10:19.011Z,3.1
2018-09-26T21:13:19.174Z,3
2018-09-26T21:16:19.552Z,2.9
2018-09-26T21:19:19.044Z,2.8
2018-09-26T21:22:19.381Z,2.6
2018-09-26T21:25:19.323Z,2.8
2018-09-26T21:28:19.324Z,3.3
2018-09-26T21:31:20.408Z,2.7
2018-09-26T21:34:19.304Z,2.7
2018-09-26T21:37:19.426Z,2.7
2018-09-26T21:40:19.602Z,2.5
2018-09-26T21:43:19.243Z,2.4
2018-09-26T21:46:19.583Z,2.4
2018-09-26T21:49:19.011Z,2.5
2018-09-26T21:52:19.129Z,3
2018-09-26T21:55:19.485Z,2.8
2018-09-26T21:58:19.236Z,2.7
2018-09-26T22:01:19.490Z,2.9
2018-09-26T22:04:19.228Z,2.6
2018-09-26T22:07:18.982Z,2.6
2018-09-26T22:10:19.312Z,3.5
2018-09-26T22:13:19.175Z,3
2018-09-26T22:16:19.151Z,2.6
2018-09-26T22:19:19.487Z,2.4
2018-09-26T22:22:19.432Z,2.3
2018-09-26T22:25:19.151Z,2.2
2018-09-26T22:28:19.282Z,2.3
2018-09-26T22:31:20.941Z,2.5
2018-09-26T22:34:19.127Z,2.4
2018-09-26T22:37:19.115Z,2.4
2018-09-26T22:40:19.310Z,2.3
2018-09-26T22:43:20.138Z,2.4
2018-09-26T22:46:19.215Z,2.8
2018-09-26T22:49:19.431Z,2.5
2018-09-26T22:52:19.123Z,2.5
2018-09-26T22:55:19.209Z,2.4
2018-09-26T22:58:19.175Z,2.5
2018-09-26T23:01:19.271Z,2.3
2018-09-26T23:04:19.210Z,2.4
2018-09-26T23:07:19.046Z,2.4
2018-09-26T23:10:19.067Z,2.7
2018-09-26T23:13:19.353Z,2.6
2018-09-26T23:16:19.026Z,2.7
2018-09-26T23:19:19.060Z,2.5
2018-09-26T23:22:19.341Z,2.3
2018-09-26T23:25:19.253Z,2.6
2018-09-26T23:28:19.214Z,2.4
2018-09-26T23:31:19.085Z,2.6
2018-09-26T23:34:19.212Z,2.4
2018-09-26T23:37:19.188Z,2.2
2018-09-26T23:40:19.293Z,2.1
2018-09-26T23:43:19.435Z,2.1
2018-09-26T23:46:19.112Z,2.2
2018-09-26T23:49:19.017Z,2.2
2018-09-26T23:52:19.142Z,3
2018-09-26T23:55:19.008Z,2.6
2018-09-26T23:58:19.199Z,2.3
